sensor_id;sensor_type;location;lat;lon;timestamp;P1;durP1;ratioP1;P2;durP2;ratioP2
54037;SDS011;39954;48.844;9.726;2024-01-25T00:00:10;477.45;;;421.48;;
54037;SDS011;39954;48.844;9.726;2024-01-25T00:01:15;458.27;;;416.30;;
54037;SDS011;39954;48.844;9.726;2024-01-25T00:02:19;499.27;;;426.73;;
54037;SDS011;39954;48.844;9.726;2024-01-25T00:03:21;460.60;;;410.70;;
54037;SDS011;39954;48.844;9.726;2024-01-25T00:04:26;461.10;;;416.92;;
54037;SDS011;39954;48.844;9.726;2024-01-25T00:05:31;468.05;;;415.50;;
54037;SDS011;39954;48.844;9.726;2024-01-25T00:06:34;472.77;;;424.02;;
54037;SDS011;39954;48.844;9.726;2024-01-25T00:07:45;468.30;;;419.17;;
54037;SDS011;39954;48.844;9.726;2024-01-25T00:08:48;556.53;;;440.42;;
54037;SDS011;39954;48.844;9.726;2024-01-25T00:09:52;516.00;;;447.52;;
54037;SDS011;39954;48.844;9.726;2024-01-25T00:10:55;481.05;;;427.73;;
54037;SDS011;39954;48.844;9.726;2024-01-25T00:12:02;597.35;;;447.25;;
54037;SDS011;39954;48.844;9.726;2024-01-25T00:13:05;477.42;;;424.75;;
54037;SDS011;39954;48.844;9.726;2024-01-25T00:14:10;479.73;;;417.95;;
54037;SDS011;39954;48.844;9.726;2024-01-25T00:15:12;584.65;;;444.02;;
54037;SDS011;39954;48.844;9.726;2024-01-25T00:16:17;482.90;;;432.35;;
54037;SDS011;39954;48.844;9.726;2024-01-25T00:17:20;470.42;;;418.95;;
54037;SDS011;39954;48.844;9.726;2024-01-25T00:18:26;484.42;;;414.85;;
54037;SDS011;39954;48.844;9.726;2024-01-25T00:19:30;462.05;;;411.08;;
54037;SDS011;39954;48.844;9.726;2024-01-25T00:20:35;476.40;;;418.38;;
54037;SDS011;39954;48.844;9.726;2024-01-25T00:21:41;546.42;;;428.17;;
54037;SDS011;39954;48.844;9.726;2024-01-25T00:22:47;527.83;;;426.52;;
54037;SDS011;39954;48.844;9.726;2024-01-25T00:23:49;488.33;;;406.33;;
54037;SDS011;39954;48.844;9.726;2024-01-25T00:24:54;510.08;;;420.05;;
54037;SDS011;39954;48.844;9.726;2024-01-25T00:25:56;494.77;;;415.08;;
54037;SDS011;39954;48.844;9.726;2024-01-25T00:27:04;489.52;;;432.90;;
54037;SDS011;39954;48.844;9.726;2024-01-25T00:28:06;481.10;;;429.30;;
54037;SDS011;39954;48.844;9.726;2024-01-25T00:29:11;468.63;;;418.27;;
54037;SDS011;39954;48.844;9.726;2024-01-25T00:30:13;467.05;;;417.08;;
54037;SDS011;39954;48.844;9.726;2024-01-25T00:31:16;471.45;;;417.23;;
54037;SDS011;39954;48.844;9.726;2024-01-25T00:32:21;481.48;;;413.90;;
54037;SDS011;39954;48.844;9.726;2024-01-25T00:33:23;469.80;;;417.70;;
54037;SDS011;39954;48.844;9.726;2024-01-25T00:34:28;543.65;;;431.58;;
54037;SDS011;39954;48.844;9.726;2024-01-25T00:35:31;473.30;;;423.00;;
54037;SDS011;39954;48.844;9.726;2024-01-25T00:36:37;459.58;;;412.23;;
54037;SDS011;39954;48.844;9.726;2024-01-25T00:37:40;553.95;;;439.35;;
54037;SDS011;39954;48.844;9.726;2024-01-25T00:38:43;486.42;;;423.25;;
54037;SDS011;39954;48.844;9.726;2024-01-25T00:39:48;505.27;;;430.10;;
54037;SDS011;39954;48.844;9.726;2024-01-25T00:40:52;568.60;;;442.67;;
54037;SDS011;39954;48.844;9.726;2024-01-25T00:41:58;526.65;;;428.58;;
54037;SDS011;39954;48.844;9.726;2024-01-25T00:43:07;472.95;;;422.27;;
54037;SDS011;39954;48.844;9.726;2024-01-25T00:44:13;520.47;;;428.88;;
54037;SDS011;39954;48.844;9.726;2024-01-25T00:45:16;461.60;;;409.40;;
54037;SDS011;39954;48.844;9.726;2024-01-25T00:46:21;474.80;;;423.67;;
54037;SDS011;39954;48.844;9.726;2024-01-25T00:47:24;531.25;;;432.73;;
54037;SDS011;39954;48.844;9.726;2024-01-25T00:48:29;463.02;;;416.38;;
54037;SDS011;39954;48.844;9.726;2024-01-25T00:49:32;487.90;;;434.42;;
54037;SDS011;39954;48.844;9.726;2024-01-25T00:50:38;473.15;;;422.52;;
54037;SDS011;39954;48.844;9.726;2024-01-25T00:51:43;465.70;;;414.92;;
54037;SDS011;39954;48.844;9.726;2024-01-25T00:52:52;650.97;;;460.15;;
54037;SDS011;39954;48.844;9.726;2024-01-25T00:53:55;483.10;;;423.13;;
54037;SDS011;39954;48.844;9.726;2024-01-25T00:54:57;476.08;;;425.40;;
54037;SDS011;39954;48.844;9.726;2024-01-25T00:56:03;483.00;;;414.10;;
54037;SDS011;39954;48.844;9.726;2024-01-25T00:57:09;451.60;;;407.05;;
54037;SDS011;39954;48.844;9.726;2024-01-25T00:58:15;461.83;;;416.13;;
54037;SDS011;39954;48.844;9.726;2024-01-25T00:59:19;482.80;;;415.58;;
54037;SDS011;39954;48.844;9.726;2024-01-25T01:00:24;461.33;;;412.73;;
54037;SDS011;39954;48.844;9.726;2024-01-25T01:01:28;464.65;;;417.33;;
54037;SDS011;39954;48.844;9.726;2024-01-25T01:02:35;492.83;;;419.83;;
54037;SDS011;39954;48.844;9.726;2024-01-25T01:03:41;475.30;;;413.55;;
54037;SDS011;39954;48.844;9.726;2024-01-25T01:04:47;504.50;;;423.25;;
54037;SDS011;39954;48.844;9.726;2024-01-25T01:05:51;511.13;;;412.20;;
54037;SDS011;39954;48.844;9.726;2024-01-25T01:07:00;467.17;;;414.23;;
54037;SDS011;39954;48.844;9.726;2024-01-25T01:08:07;444.98;;;401.50;;
54037;SDS011;39954;48.844;9.726;2024-01-25T01:09:14;452.38;;;406.85;;
54037;SDS011;39954;48.844;9.726;2024-01-25T01:10:20;465.80;;;411.85;;
54037;SDS011;39954;48.844;9.726;2024-01-25T01:11:26;468.00;;;421.05;;
54037;SDS011;39954;48.844;9.726;2024-01-25T01:12:32;456.15;;;408.73;;
54037;SDS011;39954;48.844;9.726;2024-01-25T01:13:39;516.38;;;448.25;;
54037;SDS011;39954;48.844;9.726;2024-01-25T01:14:42;468.10;;;420.17;;
54037;SDS011;39954;48.844;9.726;2024-01-25T01:15:47;479.73;;;428.73;;
54037;SDS011;39954;48.844;9.726;2024-01-25T01:16:51;616.63;;;464.52;;
54037;SDS011;39954;48.844;9.726;2024-01-25T01:17:57;501.02;;;435.15;;
54037;SDS011;39954;48.844;9.726;2024-01-25T01:19:00;501.20;;;446.58;;
54037;SDS011;39954;48.844;9.726;2024-01-25T01:20:09;509.98;;;426.17;;
54037;SDS011;39954;48.844;9.726;2024-01-25T01:21:13;458.95;;;412.75;;
54037;SDS011;39954;48.844;9.726;2024-01-25T01:22:19;444.00;;;399.70;;
54037;SDS011;39954;48.844;9.726;2024-01-25T01:23:22;442.50;;;394.70;;
54037;SDS011;39954;48.844;9.726;2024-01-25T01:24:27;431.42;;;385.77;;
54037;SDS011;39954;48.844;9.726;2024-01-25T01:25:31;420.60;;;378.25;;
54037;SDS011;39954;48.844;9.726;2024-01-25T01:26:36;437.02;;;391.08;;
54037;SDS011;39954;48.844;9.726;2024-01-25T01:27:42;442.45;;;396.70;;
54037;SDS011;39954;48.844;9.726;2024-01-25T01:28:47;460.52;;;399.95;;
54037;SDS011;39954;48.844;9.726;2024-01-25T01:29:51;502.40;;;406.80;;
54037;SDS011;39954;48.844;9.726;2024-01-25T01:30:59;474.75;;;397.15;;
54037;SDS011;39954;48.844;9.726;2024-01-25T01:32:05;573.92;;;408.33;;
54037;SDS011;39954;48.844;9.726;2024-01-25T01:33:10;437.05;;;389.35;;
54037;SDS011;39954;48.844;9.726;2024-01-25T01:34:17;437.70;;;391.52;;
54037;SDS011;39954;48.844;9.726;2024-01-25T01:35:24;543.33;;;397.88;;
54037;SDS011;39954;48.844;9.726;2024-01-25T01:36:27;435.27;;;392.13;;
54037;SDS011;39954;48.844;9.726;2024-01-25T01:37:32;453.00;;;403.67;;
54037;SDS011;39954;48.844;9.726;2024-01-25T01:38:35;446.17;;;399.83;;
54037;SDS011;39954;48.844;9.726;2024-01-25T01:39:41;442.95;;;395.77;;
54037;SDS011;39954;48.844;9.726;2024-01-25T01:40:44;446.58;;;397.52;;
54037;SDS011;39954;48.844;9.726;2024-01-25T01:41:51;468.02;;;398.75;;
54037;SDS011;39954;48.844;9.726;2024-01-25T01:44:32;467.40;;;414.10;;
54037;SDS011;39954;48.844;9.726;2024-01-25T01:45:37;472.42;;;401.10;;
54037;SDS011;39954;48.844;9.726;2024-01-25T01:46:43;485.80;;;400.05;;
54037;SDS011;39954;48.844;9.726;2024-01-25T01:47:46;480.80;;;401.73;;
54037;SDS011;39954;48.844;9.726;2024-01-25T01:48:52;547.70;;;414.92;;
54037;SDS011;39954;48.844;9.726;2024-01-25T01:49:56;578.45;;;426.75;;
54037;SDS011;39954;48.844;9.726;2024-01-25T01:51:03;490.27;;;393.65;;
54037;SDS011;39954;48.844;9.726;2024-01-25T01:52:07;516.40;;;397.52;;
54037;SDS011;39954;48.844;9.726;2024-01-25T01:53:13;431.85;;;385.50;;
54037;SDS011;39954;48.844;9.726;2024-01-25T01:54:16;471.10;;;397.02;;
54037;SDS011;39954;48.844;9.726;2024-01-25T01:55:22;434.25;;;386.08;;
54037;SDS011;39954;48.844;9.726;2024-01-25T01:56:25;422.52;;;379.02;;
54037;SDS011;39954;48.844;9.726;2024-01-25T01:58:42;459.92;;;406.85;;
54037;SDS011;39954;48.844;9.726;2024-01-25T01:59:47;435.05;;;394.27;;
54037;SDS011;39954;48.844;9.726;2024-01-25T02:00:54;459.15;;;393.08;;
54037;SDS011;39954;48.844;9.726;2024-01-25T02:01:58;525.03;;;412.02;;
54037;SDS011;39954;48.844;9.726;2024-01-25T02:03:02;447.83;;;399.98;;
54037;SDS011;39954;48.844;9.726;2024-01-25T02:04:08;439.98;;;395.50;;
54037;SDS011;39954;48.844;9.726;2024-01-25T02:05:12;428.15;;;386.00;;
54037;SDS011;39954;48.844;9.726;2024-01-25T02:06:18;454.08;;;410.13;;
54037;SDS011;39954;48.844;9.726;2024-01-25T02:07:21;442.08;;;397.08;;
54037;SDS011;39954;48.844;9.726;2024-01-25T02:08:30;444.48;;;399.75;;
54037;SDS011;39954;48.844;9.726;2024-01-25T02:09:33;440.35;;;395.02;;
54037;SDS011;39954;48.844;9.726;2024-01-25T02:10:40;429.52;;;385.05;;
54037;SDS011;39954;48.844;9.726;2024-01-25T02:11:43;453.20;;;408.48;;
54037;SDS011;39954;48.844;9.726;2024-01-25T02:12:49;430.05;;;383.20;;
54037;SDS011;39954;48.844;9.726;2024-01-25T02:13:55;434.48;;;387.73;;
54037;SDS011;39954;48.844;9.726;2024-01-25T02:15:00;467.50;;;415.67;;
54037;SDS011;39954;48.844;9.726;2024-01-25T02:16:03;508.42;;;413.80;;
54037;SDS011;39954;48.844;9.726;2024-01-25T02:17:07;475.42;;;393.65;;
54037;SDS011;39954;48.844;9.726;2024-01-25T02:18:14;429.90;;;384.95;;
54037;SDS011;39954;48.844;9.726;2024-01-25T02:19:17;436.55;;;389.70;;
54037;SDS011;39954;48.844;9.726;2024-01-25T02:20:25;455.40;;;407.55;;
54037;SDS011;39954;48.844;9.726;2024-01-25T02:21:28;537.35;;;412.85;;
54037;SDS011;39954;48.844;9.726;2024-01-25T02:22:36;480.95;;;401.88;;
54037;SDS011;39954;48.844;9.726;2024-01-25T02:23:39;438.98;;;391.80;;
54037;SDS011;39954;48.844;9.726;2024-01-25T02:24:44;448.10;;;399.08;;
54037;SDS011;39954;48.844;9.726;2024-01-25T02:25:48;664.22;;;421.15;;
54037;SDS011;39954;48.844;9.726;2024-01-25T02:26:54;452.48;;;392.30;;
54037;SDS011;39954;48.844;9.726;2024-01-25T02:27:57;503.75;;;403.52;;
54037;SDS011;39954;48.844;9.726;2024-01-25T02:29:02;432.63;;;378.17;;
54037;SDS011;39954;48.844;9.726;2024-01-25T02:30:07;566.38;;;406.02;;
54037;SDS011;39954;48.844;9.726;2024-01-25T02:31:13;443.63;;;396.33;;
54037;SDS011;39954;48.844;9.726;2024-01-25T02:32:19;589.33;;;401.10;;
54037;SDS011;39954;48.844;9.726;2024-01-25T02:33:25;424.70;;;379.60;;
54037;SDS011;39954;48.844;9.726;2024-01-25T02:34:29;459.05;;;391.35;;
54037;SDS011;39954;48.844;9.726;2024-01-25T02:35:36;421.30;;;379.20;;
54037;SDS011;39954;48.844;9.726;2024-01-25T02:36:39;423.73;;;378.13;;
54037;SDS011;39954;48.844;9.726;2024-01-25T02:37:49;417.20;;;374.08;;
54037;SDS011;39954;48.844;9.726;2024-01-25T02:38:52;425.83;;;382.08;;
54037;SDS011;39954;48.844;9.726;2024-01-25T02:39:58;428.73;;;381.45;;
54037;SDS011;39954;48.844;9.726;2024-01-25T02:41:02;507.90;;;390.27;;
54037;SDS011;39954;48.844;9.726;2024-01-25T02:42:08;484.10;;;392.17;;
54037;SDS011;39954;48.844;9.726;2024-01-25T02:43:11;458.60;;;392.48;;
54037;SDS011;39954;48.844;9.726;2024-01-25T02:44:17;417.00;;;373.65;;
54037;SDS011;39954;48.844;9.726;2024-01-25T02:45:21;411.15;;;370.40;;
54037;SDS011;39954;48.844;9.726;2024-01-25T02:46:27;424.40;;;377.77;;
54037;SDS011;39954;48.844;9.726;2024-01-25T02:47:30;414.45;;;370.35;;
54037;SDS011;39954;48.844;9.726;2024-01-25T02:48:37;435.17;;;376.38;;
54037;SDS011;39954;48.844;9.726;2024-01-25T02:49:40;406.05;;;365.02;;
54037;SDS011;39954;48.844;9.726;2024-01-25T02:50:46;469.85;;;387.75;;
54037;SDS011;39954;48.844;9.726;2024-01-25T02:51:49;421.45;;;376.52;;
54037;SDS011;39954;48.844;9.726;2024-01-25T02:52:55;424.85;;;379.60;;
54037;SDS011;39954;48.844;9.726;2024-01-25T02:54:01;602.38;;;417.55;;
54037;SDS011;39954;48.844;9.726;2024-01-25T02:55:05;487.13;;;388.52;;
54037;SDS011;39954;48.844;9.726;2024-01-25T02:56:11;451.27;;;380.05;;
54037;SDS011;39954;48.844;9.726;2024-01-25T02:57:14;480.65;;;388.33;;
54037;SDS011;39954;48.844;9.726;2024-01-25T02:58:20;427.17;;;381.27;;
54037;SDS011;39954;48.844;9.726;2024-01-25T02:59:23;423.85;;;378.80;;
54037;SDS011;39954;48.844;9.726;2024-01-25T03:00:29;452.02;;;379.83;;
54037;SDS011;39954;48.844;9.726;2024-01-25T03:01:37;408.05;;;365.02;;
54037;SDS011;39954;48.844;9.726;2024-01-25T03:02:44;433.15;;;385.92;;
54037;SDS011;39954;48.844;9.726;2024-01-25T03:03:49;463.92;;;399.88;;
54037;SDS011;39954;48.844;9.726;2024-01-25T03:04:55;442.58;;;393.52;;
54037;SDS011;39954;48.844;9.726;2024-01-25T03:05:59;441.98;;;396.20;;
54037;SDS011;39954;48.844;9.726;2024-01-25T03:07:11;428.10;;;382.27;;
54037;SDS011;39954;48.844;9.726;2024-01-25T03:08:20;461.13;;;390.45;;
54037;SDS011;39954;48.844;9.726;2024-01-25T03:09:25;424.08;;;380.92;;
54037;SDS011;39954;48.844;9.726;2024-01-25T03:10:29;420.35;;;375.65;;
54037;SDS011;39954;48.844;9.726;2024-01-25T03:11:35;446.88;;;400.35;;
54037;SDS011;39954;48.844;9.726;2024-01-25T03:12:38;447.08;;;388.52;;
54037;SDS011;39954;48.844;9.726;2024-01-25T03:13:44;429.40;;;386.10;;
54037;SDS011;39954;48.844;9.726;2024-01-25T03:14:47;442.38;;;396.75;;
54037;SDS011;39954;48.844;9.726;2024-01-25T03:15:53;476.80;;;410.90;;
54037;SDS011;39954;48.844;9.726;2024-01-25T03:16:56;449.48;;;402.02;;
54037;SDS011;39954;48.844;9.726;2024-01-25T03:18:02;600.83;;;451.52;;
54037;SDS011;39954;48.844;9.726;2024-01-25T03:19:06;492.80;;;419.33;;
54037;SDS011;39954;48.844;9.726;2024-01-25T03:20:12;475.85;;;402.23;;
54037;SDS011;39954;48.844;9.726;2024-01-25T03:21:16;439.60;;;391.17;;
54037;SDS011;39954;48.844;9.726;2024-01-25T03:22:21;690.80;;;425.35;;
54037;SDS011;39954;48.844;9.726;2024-01-25T03:23:27;468.98;;;397.15;;
54037;SDS011;39954;48.844;9.726;2024-01-25T03:24:40;482.38;;;417.23;;
54037;SDS011;39954;48.844;9.726;2024-01-25T03:25:43;433.45;;;387.13;;
54037;SDS011;39954;48.844;9.726;2024-01-25T03:26:49;449.38;;;403.02;;
54037;SDS011;39954;48.844;9.726;2024-01-25T03:27:52;442.85;;;394.55;;
54037;SDS011;39954;48.844;9.726;2024-01-25T03:28:58;447.98;;;403.45;;
54037;SDS011;39954;48.844;9.726;2024-01-25T03:30:02;432.95;;;385.77;;
54037;SDS011;39954;48.844;9.726;2024-01-25T03:31:09;450.08;;;400.25;;
54037;SDS011;39954;48.844;9.726;2024-01-25T03:32:12;455.38;;;391.50;;
54037;SDS011;39954;48.844;9.726;2024-01-25T03:33:18;437.60;;;390.55;;
54037;SDS011;39954;48.844;9.726;2024-01-25T03:34:21;438.50;;;393.13;;
54037;SDS011;39954;48.844;9.726;2024-01-25T03:35:27;433.58;;;387.60;;
54037;SDS011;39954;48.844;9.726;2024-01-25T03:36:32;424.42;;;383.25;;
54037;SDS011;39954;48.844;9.726;2024-01-25T03:37:38;415.40;;;374.10;;
54037;SDS011;39954;48.844;9.726;2024-01-25T03:38:46;439.70;;;374.48;;
54037;SDS011;39954;48.844;9.726;2024-01-25T03:39:49;422.60;;;378.88;;
54037;SDS011;39954;48.844;9.726;2024-01-25T03:40:55;437.05;;;376.65;;
54037;SDS011;39954;48.844;9.726;2024-01-25T03:42:00;428.10;;;383.83;;
54037;SDS011;39954;48.844;9.726;2024-01-25T03:43:06;445.70;;;392.88;;
54037;SDS011;39954;48.844;9.726;2024-01-25T03:44:25;442.92;;;385.58;;
54037;SDS011;39954;48.844;9.726;2024-01-25T03:45:31;420.88;;;375.88;;
54037;SDS011;39954;48.844;9.726;2024-01-25T03:46:34;419.45;;;374.05;;
54037;SDS011;39954;48.844;9.726;2024-01-25T03:47:40;424.80;;;373.40;;
54037;SDS011;39954;48.844;9.726;2024-01-25T03:48:45;431.52;;;370.27;;
54037;SDS011;39954;48.844;9.726;2024-01-25T03:49:51;490.08;;;382.58;;
54037;SDS011;39954;48.844;9.726;2024-01-25T03:50:54;421.27;;;374.73;;
54037;SDS011;39954;48.844;9.726;2024-01-25T03:52:03;422.05;;;373.38;;
54037;SDS011;39954;48.844;9.726;2024-01-25T03:53:09;443.55;;;370.77;;
54037;SDS011;39954;48.844;9.726;2024-01-25T03:54:20;509.33;;;381.38;;
54037;SDS011;39954;48.844;9.726;2024-01-25T03:55:23;415.02;;;373.17;;
54037;SDS011;39954;48.844;9.726;2024-01-25T03:56:29;401.90;;;362.42;;
54037;SDS011;39954;48.844;9.726;2024-01-25T03:57:32;430.17;;;386.73;;
54037;SDS011;39954;48.844;9.726;2024-01-25T03:58:39;431.08;;;387.45;;
54037;SDS011;39954;48.844;9.726;2024-01-25T03:59:42;407.85;;;365.77;;
54037;SDS011;39954;48.844;9.726;2024-01-25T04:00:47;417.02;;;373.63;;
54037;SDS011;39954;48.844;9.726;2024-01-25T04:01:50;409.48;;;364.75;;
54037;SDS011;39954;48.844;9.726;2024-01-25T04:02:57;401.95;;;358.85;;
54037;SDS011;39954;48.844;9.726;2024-01-25T04:04:03;406.70;;;363.83;;
54037;SDS011;39954;48.844;9.726;2024-01-25T04:05:07;418.67;;;365.27;;
54037;SDS011;39954;48.844;9.726;2024-01-25T04:06:13;419.75;;;372.33;;
54037;SDS011;39954;48.844;9.726;2024-01-25T04:07:16;415.52;;;370.60;;
54037;SDS011;39954;48.844;9.726;2024-01-25T04:08:22;401.30;;;360.98;;
54037;SDS011;39954;48.844;9.726;2024-01-25T04:09:27;416.35;;;373.33;;
54037;SDS011;39954;48.844;9.726;2024-01-25T04:10:33;435.23;;;378.88;;
54037;SDS011;39954;48.844;9.726;2024-01-25T04:11:36;404.45;;;363.20;;
54037;SDS011;39954;48.844;9.726;2024-01-25T04:12:42;413.55;;;369.08;;
54037;SDS011;39954;48.844;9.726;2024-01-25T04:13:45;442.95;;;372.23;;
54037;SDS011;39954;48.844;9.726;2024-01-25T04:14:51;427.40;;;381.00;;
54037;SDS011;39954;48.844;9.726;2024-01-25T04:15:54;429.73;;;377.52;;
54037;SDS011;39954;48.844;9.726;2024-01-25T04:16:59;422.00;;;365.45;;
54037;SDS011;39954;48.844;9.726;2024-01-25T04:18:05;470.23;;;378.27;;
54037;SDS011;39954;48.844;9.726;2024-01-25T04:19:11;470.08;;;371.08;;
54037;SDS011;39954;48.844;9.726;2024-01-25T04:20:15;536.30;;;387.05;;
54037;SDS011;39954;48.844;9.726;2024-01-25T04:21:20;494.70;;;373.88;;
54037;SDS011;39954;48.844;9.726;2024-01-25T04:22:23;464.15;;;370.95;;
54037;SDS011;39954;48.844;9.726;2024-01-25T04:23:29;520.00;;;383.02;;
54037;SDS011;39954;48.844;9.726;2024-01-25T04:24:35;421.33;;;375.30;;
54037;SDS011;39954;48.844;9.726;2024-01-25T04:25:40;423.20;;;377.40;;
54037;SDS011;39954;48.844;9.726;2024-01-25T04:26:43;578.28;;;382.42;;
54037;SDS011;39954;48.844;9.726;2024-01-25T04:27:49;420.30;;;362.00;;
54037;SDS011;39954;48.844;9.726;2024-01-25T04:28:52;405.23;;;361.50;;
54037;SDS011;39954;48.844;9.726;2024-01-25T04:29:58;502.10;;;385.60;;
54037;SDS011;39954;48.844;9.726;2024-01-25T04:31:01;409.33;;;368.23;;
54037;SDS011;39954;48.844;9.726;2024-01-25T04:32:07;453.85;;;392.30;;
54037;SDS011;39954;48.844;9.726;2024-01-25T04:33:10;536.22;;;394.40;;
54037;SDS011;39954;48.844;9.726;2024-01-25T04:34:16;475.75;;;383.20;;
54037;SDS011;39954;48.844;9.726;2024-01-25T04:35:19;461.02;;;384.15;;
54037;SDS011;39954;48.844;9.726;2024-01-25T04:36:25;558.33;;;395.08;;
54037;SDS011;39954;48.844;9.726;2024-01-25T04:37:30;426.88;;;384.50;;
54037;SDS011;39954;48.844;9.726;2024-01-25T04:38:33;427.02;;;383.98;;
54037;SDS011;39954;48.844;9.726;2024-01-25T04:39:43;454.48;;;407.23;;
54037;SDS011;39954;48.844;9.726;2024-01-25T04:40:46;457.67;;;410.58;;
54037;SDS011;39954;48.844;9.726;2024-01-25T04:41:52;449.55;;;403.08;;
54037;SDS011;39954;48.844;9.726;2024-01-25T04:42:55;489.10;;;405.10;;
54037;SDS011;39954;48.844;9.726;2024-01-25T04:44:01;435.02;;;395.05;;
54037;SDS011;39954;48.844;9.726;2024-01-25T04:45:05;471.88;;;420.08;;
54037;SDS011;39954;48.844;9.726;2024-01-25T04:46:12;479.13;;;429.63;;
54037;SDS011;39954;48.844;9.726;2024-01-25T04:47:15;461.98;;;413.20;;
54037;SDS011;39954;48.844;9.726;2024-01-25T04:48:21;462.98;;;409.27;;
54037;SDS011;39954;48.844;9.726;2024-01-25T04:49:24;430.30;;;387.25;;
54037;SDS011;39954;48.844;9.726;2024-01-25T04:50:32;420.95;;;378.95;;
54037;SDS011;39954;48.844;9.726;2024-01-25T04:51:36;401.95;;;360.80;;
54037;SDS011;39954;48.844;9.726;2024-01-25T04:52:42;417.30;;;367.25;;
54037;SDS011;39954;48.844;9.726;2024-01-25T04:53:46;504.60;;;394.17;;
54037;SDS011;39954;48.844;9.726;2024-01-25T04:54:55;436.42;;;376.08;;
54037;SDS011;39954;48.844;9.726;2024-01-25T04:55:58;445.05;;;383.23;;
54037;SDS011;39954;48.844;9.726;2024-01-25T04:57:06;411.27;;;359.67;;
54037;SDS011;39954;48.844;9.726;2024-01-25T04:58:10;463.67;;;392.17;;
54037;SDS011;39954;48.844;9.726;2024-01-25T04:59:16;477.27;;;402.65;;
54037;SDS011;39954;48.844;9.726;2024-01-25T05:00:19;506.48;;;385.33;;
54037;SDS011;39954;48.844;9.726;2024-01-25T05:01:25;404.02;;;361.08;;
54037;SDS011;39954;48.844;9.726;2024-01-25T05:02:28;424.20;;;377.67;;
54037;SDS011;39954;48.844;9.726;2024-01-25T05:03:34;422.98;;;377.13;;
54037;SDS011;39954;48.844;9.726;2024-01-25T05:04:37;437.80;;;392.77;;
54037;SDS011;39954;48.844;9.726;2024-01-25T05:05:46;442.80;;;399.45;;
54037;SDS011;39954;48.844;9.726;2024-01-25T05:06:50;440.67;;;393.90;;
54037;SDS011;39954;48.844;9.726;2024-01-25T05:07:56;450.13;;;402.77;;
54037;SDS011;39954;48.844;9.726;2024-01-25T05:08:59;446.83;;;401.13;;
54037;SDS011;39954;48.844;9.726;2024-01-25T05:10:07;440.67;;;396.90;;
54037;SDS011;39954;48.844;9.726;2024-01-25T05:11:13;486.50;;;417.33;;
54037;SDS011;39954;48.844;9.726;2024-01-25T05:12:19;455.73;;;405.42;;
54037;SDS011;39954;48.844;9.726;2024-01-25T05:13:24;518.22;;;422.50;;
54037;SDS011;39954;48.844;9.726;2024-01-25T05:14:29;455.00;;;407.13;;
54037;SDS011;39954;48.844;9.726;2024-01-25T05:15:32;427.58;;;387.00;;
54037;SDS011;39954;48.844;9.726;2024-01-25T05:16:38;445.05;;;400.08;;
54037;SDS011;39954;48.844;9.726;2024-01-25T05:17:41;438.55;;;395.17;;
54037;SDS011;39954;48.844;9.726;2024-01-25T05:18:44;421.27;;;377.13;;
54037;SDS011;39954;48.844;9.726;2024-01-25T05:19:50;426.20;;;384.33;;
54037;SDS011;39954;48.844;9.726;2024-01-25T05:20:53;432.33;;;387.95;;
54037;SDS011;39954;48.844;9.726;2024-01-25T05:21:59;483.50;;;399.08;;
54037;SDS011;39954;48.844;9.726;2024-01-25T05:23:05;434.00;;;389.70;;
54037;SDS011;39954;48.844;9.726;2024-01-25T05:24:12;450.10;;;395.80;;
54037;SDS011;39954;48.844;9.726;2024-01-25T05:25:18;524.53;;;418.00;;
54037;SDS011;39954;48.844;9.726;2024-01-25T05:26:24;508.73;;;407.58;;
54037;SDS011;39954;48.844;9.726;2024-01-25T05:27:27;501.30;;;417.20;;
54037;SDS011;39954;48.844;9.726;2024-01-25T05:28:32;461.65;;;406.58;;
54037;SDS011;39954;48.844;9.726;2024-01-25T05:29:38;446.98;;;397.35;;
54037;SDS011;39954;48.844;9.726;2024-01-25T05:30:43;457.52;;;400.75;;
54037;SDS011;39954;48.844;9.726;2024-01-25T05:31:46;451.83;;;395.15;;
54037;SDS011;39954;48.844;9.726;2024-01-25T05:32:52;461.40;;;410.70;;
54037;SDS011;39954;48.844;9.726;2024-01-25T05:33:57;431.05;;;343.13;;
54037;SDS011;39954;48.844;9.726;2024-01-25T05:35:03;237.90;;;90.28;;
54037;SDS011;39954;48.844;9.726;2024-01-25T05:36:07;228.02;;;103.18;;
54037;SDS011;39954;48.844;9.726;2024-01-25T05:37:13;272.40;;;98.55;;
54037;SDS011;39954;48.844;9.726;2024-01-25T05:38:16;269.15;;;102.35;;
54037;SDS011;39954;48.844;9.726;2024-01-25T05:39:22;264.38;;;97.05;;
54037;SDS011;39954;48.844;9.726;2024-01-25T05:40:27;280.80;;;79.10;;
54037;SDS011;39954;48.844;9.726;2024-01-25T05:41:32;215.07;;;67.60;;
54037;SDS011;39954;48.844;9.726;2024-01-25T05:42:37;213.35;;;58.25;;
54037;SDS011;39954;48.844;9.726;2024-01-25T05:43:43;234.77;;;72.43;;
54037;SDS011;39954;48.844;9.726;2024-01-25T05:44:46;227.65;;;78.47;;
54037;SDS011;39954;48.844;9.726;2024-01-25T05:45:52;215.75;;;80.50;;
54037;SDS011;39954;48.844;9.726;2024-01-25T05:46:55;226.45;;;72.95;;
54037;SDS011;39954;48.844;9.726;2024-01-25T05:48:01;246.32;;;96.47;;
54037;SDS011;39954;48.844;9.726;2024-01-25T05:49:05;218.07;;;93.20;;
54037;SDS011;39954;48.844;9.726;2024-01-25T05:50:11;250.57;;;91.68;;
54037;SDS011;39954;48.844;9.726;2024-01-25T05:51:14;240.75;;;91.10;;
54037;SDS011;39954;48.844;9.726;2024-01-25T05:52:20;308.48;;;101.00;;
54037;SDS011;39954;48.844;9.726;2024-01-25T05:53:24;247.18;;;93.22;;
54037;SDS011;39954;48.844;9.726;2024-01-25T05:54:30;308.75;;;98.78;;
54037;SDS011;39954;48.844;9.726;2024-01-25T05:55:37;190.05;;;85.20;;
54037;SDS011;39954;48.844;9.726;2024-01-25T05:56:42;228.15;;;89.97;;
54037;SDS011;39954;48.844;9.726;2024-01-25T05:57:46;185.85;;;94.20;;
54037;SDS011;39954;48.844;9.726;2024-01-25T05:58:52;225.85;;;95.47;;
54037;SDS011;39954;48.844;9.726;2024-01-25T05:59:54;199.43;;;88.82;;
54037;SDS011;39954;48.844;9.726;2024-01-25T06:01:00;258.92;;;89.40;;
54037;SDS011;39954;48.844;9.726;2024-01-25T06:02:03;296.27;;;99.97;;
54037;SDS011;39954;48.844;9.726;2024-01-25T06:03:10;261.83;;;102.80;;
54037;SDS011;39954;48.844;9.726;2024-01-25T06:04:13;229.40;;;76.88;;
54037;SDS011;39954;48.844;9.726;2024-01-25T06:05:19;295.13;;;70.03;;
54037;SDS011;39954;48.844;9.726;2024-01-25T06:06:22;305.05;;;72.30;;
54037;SDS011;39954;48.844;9.726;2024-01-25T06:07:27;289.75;;;72.13;;
54037;SDS011;39954;48.844;9.726;2024-01-25T06:08:31;304.65;;;94.15;;
54037;SDS011;39954;48.844;9.726;2024-01-25T06:09:37;321.00;;;172.05;;
54037;SDS011;39954;48.844;9.726;2024-01-25T06:10:42;358.77;;;242.35;;
54037;SDS011;39954;48.844;9.726;2024-01-25T06:11:45;363.92;;;292.30;;
54037;SDS011;39954;48.844;9.726;2024-01-25T06:12:51;531.28;;;472.25;;